Terminal Aerodrome Forecast
Issued by NWS

Home | Current Version | Previous Version | Text Only | Print | Product List | Glossary On
Versions: 1 2 3 4 5 6 7 8 9 10 11 12 13 14 15 16 17 18 19 20 21 22 23
609
FTAK31 PAJN 221139
TAFAJN
TAF
PAJN 221139Z 2212/2312 VRB03KT P6SM -SHSN OVC050
     FM221800 10006KT 6SM -SHSN OVC035
     FM230000 10011KT 3SM -SN BR OVC020
     FM230600 10010KT 5SM -SHSN SCT010 OVC025
     FM230900 10008KT P6SM -SHSN SCT010 OVC035=

USA.gov is the U.S. government's official web portal to all federal, state and local government web resources and services.